Latest Coastal Weather Observations for Cape Moreton

IDQ60701

Issued at 1:35 pm EST Saturday 23 August 2014 (issued every 10 minutes, with the page automatically refreshed every 10 minutes)

About coastal observations | Map of coastal stations | Coastal observations for QLD | Marine services | Other Formats
Station Details ID: 040043 Name: CAPE MORETON LIGHTHOUSE Lat: -27.03 Lon: 153.47 Height: 99.9 m
Data from the previous 72 hours. | See also: Recent months at Cape Moreton
Date/Time
EST
Temp

°C
Wind Pressure Rain
since 9am
mm
Weather Cloud Vis
km
Sea
Height
m
Swell
Dir
 
Speed
knots
Gust
knots
hPa Trend Height
m
Period
s
Dir
23/01:30pm 15.9 SE 30 35 1019.8 - - - - - - - - -
23/01:10pm 15.7 SE 36 40 1019.3 - - - - - - - - -
23/01:07pm 15.9 SE 24 34 1019.9 - - - - - - - - -
23/01:00pm 15.8 SE 27 36 1020.2 - - - - - - - - -
23/12:30pm 17.1 SE 29 39 1020.0 - - - - - - - - -
23/12:00pm 17.3 SE 29 35 1020.0 - - - - - - - - -
23/11:30am 17.3 ESE 30 35 1020.5 - - - - - - - - -
23/11:00am 16.4 ESE 33 39 1020.6 - - - - - - - - -
23/10:30am 15.4 ESE 34 47 1020.9 - - - - - - - - -
23/10:00am 15.9 ESE 33 43 1021.4 - - - - - - - - -
23/09:50am 16.4 SE 29 39 1021.0 - - - - - - - - -
23/09:30am 15.5 ESE 35 40 1020.8 - - - - - - - - -
23/09:17am 16.2 SE 30 40 1021.1 - - - - - - - - -
23/09:00am 15.3 ESE 34 41 1021.0 - - - - - - - - -
23/08:46am 16.2 ESE 33 45 1020.9 - - - - - - - - -
23/08:30am 15.8 ESE 38 44 1020.4 - - - - - - - - -
23/08:09am 16.3 ESE 36 46 1020.6 - - - - - - - - -
23/08:00am 16.3 ESE 38 43 1020.1 - - - - - - - - -
23/07:30am 16.0 ESE 39 49 1019.8 - - - - - - - - -
23/07:07am 15.5 ESE 36 46 1019.9 - - - - - - - - -
23/07:00am 15.5 SE 38 46 1019.4 - - - - - - - - -
23/06:48am 16.0 SE 35 45 1019.1 - - - - - - - - -
23/06:30am 15.9 SE 38 45 1019.4 - - - - - - - - -
23/06:00am 16.1 SE 35 42 1019.1 - - - - - - - - -
23/05:30am 15.9 SE 38 44 1018.6 - - - - - - - - -
23/05:12am 15.3 SSE 30 40 1019.1 - - - - - - - - -
23/05:00am 15.1 SSE 31 36 1018.9 - - - - - - - - -
23/04:30am 15.6 SE 32 39 1019.2 - - - - - - - - -
23/04:10am 16.2 ESE 29 39 1019.2 - - - - - - - - -
23/04:00am 15.9 ESE 33 40 1019.2 - - - - - - - - -
23/03:30am 15.6 ESE 31 39 1018.9 - - - - - - - - -
23/03:14am 15.7 SE 30 40 1019.6 - - - - - - - - -
23/03:00am 15.9 SE 33 39 1019.4 - - - - - - - - -
23/02:30am 15.5 SE 29 36 1020.1 - - - - - - - - -
23/02:26am 15.2 SE 33 43 1019.8 - - - - - - - - -
23/02:00am 15.4 SE 30 36 1020.2 - - - - - - - - -
23/01:30am 15.7 SE 32 37 1020.4 - - - - - - - - -
23/01:00am 15.0 SE 33 39 1021.0 - - - - - - - - -
23/12:30am 15.8 ESE 32 39 1021.4 - - - - - - - - -
23/12:00am 16.0 SE 31 37 1021.4 - - - - - - - - -
 
Date/Time
EST
Temp

°C
Wind Pressure Rain
since 9am
mm
Weather Cloud Vis
km
Sea
Height
m
Swell
Dir
 
Speed
knots
Gust
knots
hPa Trend Height
m
Period
s
Dir
22/11:30pm 15.8 SE 31 39 1021.7 - - - - - - - - -
22/11:10pm 16.4 SE 25 35 1021.9 - - - - - - - - -
22/11:00pm 15.8 SE 24 28 1022.2 - - - - - - - - -
22/10:30pm 15.6 SE 32 36 1021.8 - - - - - - - - -
22/10:09pm 16.3 ESE 27 39 1022.0 - - - - - - - - -
22/10:00pm 16.4 ESE 26 31 1022.4 - - - - - - - - -
22/09:30pm 15.9 SE 21 25 1023.1 - - - - - - - - -
22/09:00pm 15.1 ESE 26 30 1022.9 - - - - - - - - -
22/08:41pm 15.7 ESE 23 36 1023.1 - - - - - - - - -
22/08:30pm 15.3 ESE 16 20 1023.5 - - - - - - - - -
22/08:00pm 15.1 ESE 16 20 1023.6 - - - - - - - - -
22/07:49pm 15.2 ESE 21 24 1023.4 - - - - - - - - -
22/07:30pm 16.0 SSE 16 23 1023.2 - - - - - - - - -
22/07:18pm 15.8 SSE 20 28 1023.2 - - - - - - - - -
22/07:00pm 15.9 SE 19 26 1023.0 - - - - - - - - -
22/06:51pm 16.3 ESE 21 24 1023.0 - - - - - - - - -
22/06:46pm 16.1 SSE 17 22 1023.0 - - - - - - - - -
22/06:30pm 16.6 ESE 21 25 1022.6 - - - - - - - - -
22/06:00pm 15.9 ESE 18 24 1022.8 - - - - - - - - -
22/05:30pm 16.2 ESE 22 26 1022.6 - - - - - - - - -
22/05:00pm 16.9 ESE 22 26 1022.3 - - - - - - - - -
22/04:30pm 16.8 ESE 22 27 1021.9 - - - - - - - - -
22/04:00pm 16.7 ESE 22 27 1021.6 - - - - - - - - -
22/03:30pm 16.5 ESE 24 28 1021.5 - - - - - - - - -
22/03:00pm 16.1 ESE 27 31 1021.5 - - - - - - - - -
22/02:30pm 16.4 ESE 26 30 1021.9 - - - - - - - - -
22/02:00pm 16.4 ESE 23 27 1022.2 - - - - - - - - -
22/01:30pm 16.9 ESE 23 27 1022.5 - - - - - - - - -
22/01:00pm 16.8 ESE 22 25 1023.0 - - - - - - - - -
22/12:30pm 16.8 ESE 18 22 1023.3 - - - - - - - - -
22/12:00pm 16.8 ESE 17 21 1023.9 - - - - - - - - -
22/11:30am 16.6 ESE 23 26 1024.1 - - - - - - - - -
22/11:00am 16.5 E 20 25 1024.4 - - - - - - - - -
22/10:30am 16.5 E 23 29 1024.8 - - - - - - - - -
22/10:00am 16.7 E 21 27 1024.7 - - - - - - - - -
22/09:30am 17.4 E 23 27 1024.6 - - - - - - - - -
22/09:00am 16.8 ESE 26 31 1024.6 - - - - - - - - -
22/08:30am 16.5 ESE 25 32 1024.1 - - - - - - - - -
22/08:00am 16.2 ESE 24 27 1024.1 - - - - - - - - -
22/07:30am 16.2 ESE 26 30 1023.7 - - - - - - - - -
22/07:00am 16.5 ESE 25 29 1023.4 - - - - - - - - -
22/06:30am 16.4 E 27 32 1023.5 - - - - - - - - -
22/06:00am 16.7 ESE 28 32 1022.7 - - - - - - - - -
22/05:30am 17.1 ESE 31 35 1022.4 - - - - - - - - -
22/05:00am 16.8 ESE 32 36 1021.8 - - - - - - - - -
22/04:30am 16.5 ESE 29 35 1021.5 - - - - - - - - -
22/04:00am 16.7 ESE 32 37 1021.3 - - - - - - - - -
22/03:30am 17.1 ESE 30 36 1021.4 - - - - - - - - -
22/03:00am 17.3 ESE 30 35 1021.7 - - - - - - - - -
22/02:30am 17.1 ESE 31 37 1021.6 - - - - - - - - -
22/02:00am 17.1 ESE 31 36 1021.6 - - - - - - - - -
22/01:30am 17.4 ESE 30 37 1022.3 - - - - - - - - -
22/01:00am 17.4 ESE 32 36 1021.8 - - - - - - - - -
22/12:30am 17.5 ESE 33 42 1021.9 - - - - - - - - -
22/12:29am 17.3 ESE 32 42 1022.0 - - - - - - - - -
22/12:00am 17.5 ESE 33 40 1021.6 - - - - - - - - -
 
Date/Time
EST
Temp

°C
Wind Pressure Rain
since 9am
mm
Weather Cloud Vis
km
Sea
Height
m
Swell
Dir
 
Speed
knots
Gust
knots
hPa Trend Height
m
Period
s
Dir
21/11:30pm 17.4 SE 35 41 1021.6 - - - - - - - - -
21/11:00pm 17.4 SE 32 38 1022.2 - - - - - - - - -
21/10:30pm 16.2 ESE 34 39 1022.6 - - - - - - - - -
21/10:05pm 16.2 SE 31 43 1022.2 - - - - - - - - -
21/10:00pm 15.8 SE 32 40 1022.7 - - - - - - - - -
21/09:30pm 16.5 SE 34 39 1022.2 - - - - - - - - -
21/09:07pm 16.1 SE 33 46 1021.8 - - - - - - - - -
21/09:00pm 16.1 SE 36 45 1022.2 - - - - - - - - -
21/08:30pm 16.1 SE 38 47 1021.5 - - - - - - - - -
21/08:00pm 16.8 SE 36 44 1021.3 - - - - - - - - -
21/07:30pm 16.7 SSE 35 42 1020.9 - - - - - - - - -
21/07:12pm 17.1 SE 31 41 1021.1 - - - - - - - - -
21/07:00pm 16.5 SE 33 40 1021.3 - - - - - - - - -
21/06:30pm 17.2 SE 31 37 1021.0 - - - - - - - - -
21/06:00pm 17.0 SSE 33 39 1020.5 - - - - - - - - -
21/05:30pm 16.5 SSE 35 41 1020.5 - - - - - - - - -
21/05:00pm 17.2 SSE 33 39 1020.2 - - - - - - - - -
21/04:30pm 17.2 SSE 36 41 1019.8 - - - - - - - - -
21/04:00pm 17.3 SSE 34 38 1019.6 - - - - - - - - -
21/03:30pm 17.5 SSE 34 40 1019.4 - - - - - - - - -
21/03:10pm 17.3 SSE 29 39 1019.2 - - - - - - - - -
21/03:00pm 17.6 SSE 32 38 1019.5 - - - - - - - - -
21/02:30pm 17.7 SSE 27 37 1020.0 - - - - - - - - -
21/02:01pm 17.3 SSE 29 42 1019.6 - - - - - - - - -
21/02:00pm 17.6 SSE 29 38 1019.8 - - - - - - - - -
21/01:31pm 17.3 SSE 27 37 1020.3 - - - - - - - - -
21/01:30pm 17.2 SSE 28 37 1020.2 - - - - - - - - -
21/01:00pm 17.7 SSE 29 41 1020.1 - - - - - - - - -
21/12:30pm 17.8 SSE 30 40 1020.8 - - - - - - - - -
21/12:05pm 17.2 SSE 27 37 1021.3 - - - - - - - - -
21/12:00pm 17.3 SSE 29 37 1021.5 - - - - - - - - -
21/11:41am 17.4 SSE 27 37 1021.6 - - - - - - - - -
21/11:30am 17.7 SSE 26 34 1021.7 - - - - - - - - -
21/11:10am 17.2 S 25 35 1022.0 - - - - - - - - -
21/11:00am 17.3 SSE 26 35 1022.1 - - - - - - - - -
21/10:50am 17.3 SSE 26 36 1022.1 - - - - - - - - -
21/10:30am 17.2 SSE 26 35 1022.2 - - - - - - - - -
21/10:01am 16.9 SSE 25 35 1022.1 - - - - - - - - -
21/10:00am 17.0 SSE 25 34 1022.2 - - - - - - - - -
21/09:30am 16.5 SSE 26 38 1021.9 - - - - - - - - -
21/09:07am 17.0 SSE 27 37 1022.2 - - - - - - - - -
21/09:00am 16.7 SSE 29 38 1022.0 - - - - - - - - -
21/08:37am 16.4 SSE 26 36 1022.0 - - - - - - - - -
21/08:30am 16.4 SSE 27 35 1022.0 - - - - - - - - -
21/08:01am 16.5 SSE 27 37 1021.6 - - - - - - - - -
21/08:00am 16.4 SSE 28 37 1021.5 - - - - - - - - -
21/07:52am 16.5 SSE 32 42 1021.3 - - - - - - - - -
21/07:30am 16.5 SSE 33 41 1020.7 - - - - - - - - -
21/07:00am 16.0 SSE 26 37 1020.7 - - - - - - - - -
21/06:30am 16.0 SSE 26 38 1020.9 - - - - - - - - -
21/06:04am 16.3 SSE 27 37 1020.5 - - - - - - - - -
21/06:00am 16.2 SSE 28 37 1020.3 - - - - - - - - -
21/05:42am 16.2 SSE 26 36 1020.3 - - - - - - - - -
21/05:30am 16.3 SSE 26 34 1020.2 - - - - - - - - -
21/05:15am 16.4 SSE 25 35 1020.2 - - - - - - - - -
21/05:00am 16.4 SSE 27 35 1020.1 - - - - - - - - -
21/04:30am 16.4 SSE 25 36 1020.1 - - - - - - - - -
21/04:05am 16.5 SSE 25 35 1019.7 - - - - - - - - -
21/04:00am 16.5 S 26 33 1019.9 - - - - - - - - -
21/03:31am 16.5 S 23 34 1019.9 - - - - - - - - -
21/03:30am 16.5 S 23 31 1020.0 - - - - - - - - -
21/03:00am 16.5 S 23 31 1020.4 - - - - - - - - -
21/02:30am 16.5 S 23 29 1020.5 - - - - - - - - -
21/02:00am 16.5 S 22 29 1020.6 - - - - - - - - -
21/01:30am 16.2 S 22 28 1020.7 - - - - - - - - -
21/01:01am 16.3 S 23 33 1021.1 - - - - - - - - -
21/01:00am 16.3 S 24 33 1021.1 - - - - - - - - -
21/12:30am 16.8 SSE 23 34 1020.5 - - - - - - - - -
21/12:09am 17.1 S 21 26 1021.1 - - - - - - - - -
21/12:00am 17.5 SE 26 30 1020.8 - - - - - - - - -
 
Date/Time
EST
Temp

°C
Wind Pressure Rain
since 9am
mm
Weather Cloud Vis
km
Sea
Height
m
Swell
Dir
 
Speed
knots
Gust
knots
hPa Trend Height
m
Period
s
Dir
20/11:30pm 17.4 SE 25 30 1020.9 - - - - - - - - -
20/11:00pm 17.7 SE 26 31 1021.3 - - - - - - - - -
20/10:30pm 17.8 SE 27 31 1021.1 - - - - - - - - -
20/10:00pm 17.5 SE 21 29 1021.5 - - - - - - - - -
20/09:30pm 17.9 SE 29 33 1020.9 - - - - - - - - -
20/09:00pm 17.8 SE 28 33 1021.1 - - - - - - - - -
20/08:30pm 18.0 SE 27 32 1021.2 - - - - - - - - -
20/08:00pm 17.9 SE 28 33 1021.1 - - - - - - - - -
20/07:30pm 17.9 SE 27 36 1020.6 - - - - - - - - -
20/07:00pm 18.0 SE 29 33 1020.4 - - - - - - - - -
20/06:30pm 17.9 SE 28 32 1020.0 - - - - - - - - -
20/06:00pm 17.9 SE 27 33 1019.5 - - - - - - - - -
20/05:30pm 17.8 SE 26 31 1019.1 - - - - - - - - -
20/05:00pm 17.8 SE 27 33 1018.6 - - - - - - - - -
20/04:30pm 18.0 SSE 28 33 1018.3 - - - - - - - - -
20/04:00pm 17.9 SE 27 31 1017.9 - - - - - - - - -
20/03:30pm 18.1 SE 28 31 1017.8 - - - - - - - - -
20/03:00pm 18.1 SSE 28 32 1017.7 - - - - - - - - -
20/02:30pm 18.3 SSE 26 31 1017.8 - - - - - - - - -
20/02:00pm 18.6 SSE 24 29 1017.7 - - - - - - - - -

Other Formats:

Comma delimited format used in spreadsheet applications
http://www.bom.gov.au/fwo/IDQ60701/IDQ60701.94594.axf

JavaScript Object Notation format (JSON) in row-major order
http://www.bom.gov.au/fwo/IDQ60701/IDQ60701.94594.json